Time;durP1;ratioP1;P1;durP2;ratioP2;P2;SDS_P1;SDS_P2;PMS_P1;PMS_P2;Temp;Humidity;BMP_temperature;BMP_pressure;BME280_temperature;BME280_humidity;BME280_pressure;Samples;Min_cycle;Max_cycle;Signal;HPM_P1;HPM_P2
2022/12/25 00:00:41;;;;;;;3.47;1.60;;;;;;;10.41;65.10;99880.53;3156151;28;20044;-69
2022/12/25 00:02:13;;;;;;;5.85;2.55;;;;;;;10.44;64.97;99880.41;3147566;28;20193;-69
2022/12/25 00:03:45;;;;;;;8.50;2.75;;;;;;;10.48;64.88;99882.00;3149752;28;20047;-69
2022/12/25 00:05:17;;;;;;;5.05;2.45;;;;;;;10.49;64.51;99878.47;3154115;28;20461;-67
2022/12/25 00:06:49;;;;;;;20.98;7.88;;;;;;;10.50;63.96;99880.19;3152923;28;20363;-69
2022/12/25 00:08:21;;;;;;;9.35;4.53;;;;;;;10.53;64.07;99884.38;3152077;28;20113;-69
2022/12/25 00:09:53;;;;;;;7.47;3.75;;;;;;;10.51;63.88;99878.41;3155764;28;20052;-67
2022/12/25 00:11:24;;;;;;;9.75;4.78;;;;;;;10.53;63.55;99890.47;3157070;28;20518;-67
2022/12/25 00:12:55;;;;;;;14.60;6.53;;;;;;;10.53;63.46;99890.47;3157382;28;20059;-67
2022/12/25 00:14:27;;;;;;;13.55;6.03;;;;;;;10.52;63.29;99882.69;3157160;28;20134;-68
2022/12/25 00:15:58;;;;;;;9.45;3.75;;;;;;;10.57;62.97;99894.59;3154748;28;20052;-68
2022/12/25 00:17:30;;;;;;;12.45;5.35;;;;;;;10.59;63.07;99884.97;3155396;28;20052;-68
2022/12/25 00:19:01;;;;;;;13.13;5.55;;;;;;;10.60;62.73;99888.44;3156774;28;20355;-67
2022/12/25 00:20:33;;;;;;;12.77;4.03;;;;;;;10.61;62.12;99888.34;3156833;28;20069;-68
2022/12/25 00:22:05;;;;;;;5.22;2.67;;;;;;;10.62;62.28;99892.66;3156949;28;20099;-68
2022/12/25 00:23:38;;;;;;;9.93;4.32;;;;;;;10.61;62.12;99892.72;3152656;28;20109;-68
2022/12/25 00:25:10;;;;;;;6.73;3.63;;;;;;;10.63;61.84;99896.94;3157219;28;20048;-68
2022/12/25 00:26:41;;;;;;;7.45;3.33;;;;;;;10.58;61.95;99885.88;3157136;28;20059;-68
2022/12/25 00:28:12;;;;;;;6.20;2.67;;;;;;;10.63;61.37;99894.34;3156622;28;20052;-68
2022/12/25 00:29:44;;;;;;;4.43;2.55;;;;;;;10.61;61.38;99898.75;3156960;28;20128;-68
2022/12/25 00:31:17;;;;;;;3.33;1.90;;;;;;;10.63;61.46;99891.72;3156488;28;20044;-68
2022/12/25 00:32:49;;;;;;;3.13;1.60;;;;;;;10.68;61.11;99900.19;3157111;28;20056;-69
2022/12/25 00:34:20;;;;;;;2.67;1.58;;;;;;;10.69;61.23;99898.44;3156866;28;20052;-68
2022/12/25 00:36:00;;;;;;;2.78;1.55;;;;;;;10.73;61.01;99905.19;3157253;28;20127;-67
2022/12/25 00:37:32;;;;;;;2.63;1.42;;;;;;;10.69;60.72;99899.28;3152080;28;20041;-68
2022/12/25 00:39:06;;;;;;;2.17;1.42;;;;;;;10.78;60.77;99902.41;3145803;28;20075;-68
2022/12/25 00:40:43;;;;;;;2.88;1.80;;;;;;;10.82;60.52;99907.38;3156686;28;20530;-67
2022/12/25 00:42:19;;;;;;;1.95;1.30;;;;;;;10.83;60.74;99905.66;3156902;28;20143;-67
2022/12/25 00:43:51;;;;;;;4.03;1.98;;;;;;;10.82;60.76;99906.53;3156958;28;20076;-68
2022/12/25 00:45:22;;;;;;;3.95;1.63;;;;;;;10.83;60.41;99908.25;3156800;28;20051;-67
2022/12/25 00:46:54;;;;;;;4.78;1.08;;;;;;;10.09;60.68;99796.88;3156819;28;20382;-68
2022/12/25 00:48:27;;;;;;;3.13;1.38;;;;;;;10.84;60.40;99908.16;3131885;28;20052;-67
2022/12/25 00:49:58;;;;;;;2.95;1.58;;;;;;;10.81;60.81;99915.28;3155863;28;20078;-67
2022/12/25 00:51:30;;;;;;;2.65;1.67;;;;;;;10.83;60.71;99913.47;3151039;28;20048;-68
2022/12/25 00:53:01;;;;;;;3.08;1.55;;;;;;;10.82;60.78;99914.34;3154182;28;20044;-67
2022/12/25 00:54:34;;;;;;;3.63;1.27;;;;;;;10.81;60.63;99918.72;3156768;28;20077;-69
2022/12/25 00:56:07;;;;;;;;;;;;;;;10.72;60.96;99913.09;3157223;28;20044;-70
2022/12/25 00:57:39;;;;;;;4.05;1.33;;;;;;;10.71;60.80;99912.25;3153817;28;19931;-67
2022/12/25 00:59:10;;;;;;;3.88;1.67;;;;;;;10.67;60.88;99903.69;3155207;28;20089;-69
2022/12/25 01:00:42;;;;;;;3.42;1.30;;;;;;;10.73;60.82;99906.97;3155149;28;20044;-68
2022/12/25 01:02:22;;;;;;;2.95;2.00;;;;;;;10.67;60.85;99903.69;3151631;28;20071;-68
2022/12/25 01:03:54;;;;;;;5.72;2.38;;;;;;;10.71;60.96;99904.44;3159004;28;20083;-67
2022/12/25 01:05:26;;;;;;;4.85;2.03;;;;;;;10.69;60.91;99906.25;3159088;28;20438;-67
2022/12/25 01:06:58;;;;;;;3.13;1.92;;;;;;;10.68;60.92;99909.78;3153452;28;20513;-67
2022/12/25 01:08:32;;;;;;;3.50;1.70;;;;;;;10.68;60.63;99910.63;3159265;28;20440;-67
2022/12/25 01:10:21;;;;;;;4.93;1.98;;;;;;;10.65;60.93;99915.13;3159020;28;20487;-67
2022/12/25 01:11:52;;;;;;;4.60;1.92;;;;;;;10.61;60.87;99913.53;3158904;28;20054;-67
2022/12/25 01:13:24;;;;;;;4.32;1.88;;;;;;;10.57;60.78;99912.84;3159054;28;20051;-67
2022/12/25 01:14:55;;;;;;;3.47;1.70;;;;;;;10.55;60.81;99919.84;3158947;28;20052;-67
2022/12/25 01:16:27;;;;;;;3.78;1.58;;;;;;;10.54;60.64;99915.56;3155663;28;20511;-68
2022/12/25 01:17:59;;;;;;;4.32;2.10;;;;;;;10.50;60.75;99916.63;3158685;28;20052;-68
2022/12/25 01:19:30;;;;;;;3.22;1.52;;;;;;;10.50;60.44;99924.44;3159183;28;20074;-67
2022/12/25 01:21:06;;;;;;;3.55;1.90;;;;;;;10.50;60.59;99923.56;3146488;28;20065;-67
2022/12/25 01:22:37;;;;;;;3.47;1.77;;;;;;;10.49;60.63;99927.94;3159365;28;20052;-68
2022/12/25 01:24:09;;;;;;;3.78;1.80;;;;;;;10.47;60.84;99924.56;3158951;28;20047;-68
2022/12/25 01:25:42;;;;;;;4.38;2.47;;;;;;;10.48;60.86;99931.47;3159105;28;20536;-67
2022/12/25 01:27:13;;;;;;;2.83;1.67;;;;;;;10.46;60.76;99935.88;3159117;28;20509;-67
2022/12/25 01:28:45;;;;;;;4.50;2.05;;;;;;;10.42;60.86;99934.31;3158993;28;20127;-68
2022/12/25 01:30:17;;;;;;;3.72;1.85;;;;;;;10.38;61.17;99943.16;3158919;28;20540;-68
2022/12/25 01:31:48;;;;;;;2.25;1.25;;;;;;;10.35;61.41;99938.09;3159072;28;20386;-67
2022/12/25 01:33:19;;;;;;;5.28;1.80;;;;;;;10.30;61.50;99940.91;3158721;28;20047;-69
2022/12/25 01:34:52;;;;;;;3.45;1.65;;;;;;;10.27;61.26;99942.78;3159055;28;20207;-68
2022/12/25 01:36:24;;;;;;;3.35;1.90;;;;;;;10.23;61.36;99939.41;3154433;28;20058;-68
2022/12/25 01:37:56;;;;;;;3.20;1.75;;;;;;;10.20;61.50;99937.81;3156180;28;20501;-68
2022/12/25 01:39:27;;;;;;;4.22;2.05;;;;;;;10.17;61.87;99934.47;3152137;28;20052;-68
2022/12/25 01:41:00;;;;;;;2.30;1.65;;;;;;;10.11;61.81;99932.94;3159177;28;20056;-68
2022/12/25 01:42:31;;;;;;;3.35;2.10;;;;;;;10.13;62.27;99933.75;3158795;28;20048;-68
2022/12/25 01:44:06;;;;;;;2.95;1.60;;;;;;;10.10;62.43;99943.44;3158851;28;20057;-68
2022/12/25 01:45:42;;;;;;;3.17;1.60;;;;;;;10.07;62.61;99940.97;3158718;28;20051;-68
2022/12/25 01:47:16;;;;;;;4.05;2.00;;;;;;;9.30;62.55;99821.81;3158814;28;20055;-68
2022/12/25 01:48:48;;;;;;;3.85;2.30;;;;;;;10.07;62.62;99940.97;3158870;28;20129;-68
2022/12/25 01:50:20;;;;;;;4.57;1.77;;;;;;;10.02;62.77;99930.72;3153883;28;20053;-68
2022/12/25 01:51:57;;;;;;;2.28;1.35;;;;;;;10.04;62.61;99936.72;3150145;28;20059;-68
2022/12/25 01:53:29;;;;;;;3.70;2.08;;;;;;;10.01;62.74;99940.28;3158745;28;20108;-68
2022/12/25 01:55:02;;;;;;;3.47;1.88;;;;;;;9.57;62.90;99870.09;3154177;28;20052;-68
2022/12/25 01:56:37;;;;;;;5.70;2.17;;;;;;;9.99;63.15;99933.47;3156389;28;20067;-68
2022/12/25 01:58:09;;;;;;;3.28;1.95;;;;;;;9.96;63.30;99938.78;3158455;28;20113;-68
2022/12/25 01:59:41;;;;;;;3.45;2.05;;;;;;;9.94;63.05;99935.41;3158288;28;20048;-68
2022/12/25 02:01:13;;;;;;;4.10;1.80;;;;;;;9.92;63.21;99939.84;3153265;28;20044;-68
2022/12/25 02:02:44;;;;;;;3.42;1.85;;;;;;;9.89;63.24;99927.78;3149649;28;20051;-68
2022/12/25 02:04:21;;;;;;;5.63;2.20;;;;;;;9.89;63.55;99919.16;3154812;28;20055;-68
2022/12/25 02:05:55;;;;;;;3.20;2.08;;;;;;;9.82;63.77;99921.16;3151315;28;20056;-68
2022/12/25 02:07:27;;;;;;;3.00;2.22;;;;;;;9.84;63.77;99926.28;3150995;28;20040;-67
2022/12/25 02:08:59;;;;;;;4.40;2.30;;;;;;;9.82;63.70;99933.28;3153566;28;20440;-67
2022/12/25 02:10:31;;;;;;;3.83;2.22;;;;;;;9.80;63.94;99936.81;3158511;28;20101;-68
2022/12/25 02:12:05;;;;;;;3.70;2.03;;;;;;;9.82;63.48;99933.28;3158128;28;20059;-67
2022/12/25 02:13:37;;;;;;;4.60;2.55;;;;;;;9.80;63.65;99929.00;3157637;28;20489;-67
2022/12/25 02:15:12;;;;;;;3.35;2.00;;;;;;;9.80;63.65;99935.97;3158432;28;20059;-67
2022/12/25 02:16:47;;;;;;;4.07;1.88;;;;;;;9.79;63.84;99939.47;3154612;28;20048;-68
2022/12/25 02:18:27;;;;;;;4.65;1.85;;;;;;;9.35;63.92;99871.88;3158279;28;20075;-68
2022/12/25 02:20:23;;;;;;;3.80;2.10;;;;;;;9.77;63.85;99930.88;3153893;28;20512;-68
2022/12/25 02:22:06;;;;;;;3.92;1.80;;;;;;;8.88;63.73;99786.22;3158696;28;20064;-68
2022/12/25 02:23:58;;;;;;;4.03;1.75;;;;;;;9.74;64.12;99928.41;3158209;28;20044;-68
2022/12/25 02:25:41;;;;;;;3.50;1.77;;;;;;;9.73;64.16;99932.78;3158332;28;20952;-67
2022/12/25 02:27:31;;;;;;;4.65;1.65;;;;;;;9.62;63.73;99916.72;3158587;28;20134;-68
2022/12/25 02:29:08;;;;;;;3.05;1.65;;;;;;;9.73;63.79;99937.97;3158274;28;20125;-68
2022/12/25 02:30:46;;;;;;;3.65;1.55;;;;;;;9.74;63.69;99937.06;3158421;28;20063;-67
2022/12/25 02:32:24;;;;;;;2.85;1.60;;;;;;;9.77;64.07;99931.72;3158476;28;20048;-67
2022/12/25 02:34:02;;;;;;;3.92;2.10;;;;;;;9.76;63.53;99934.38;3154950;28;20073;-68
2022/12/25 02:35:34;;;;;;;3.13;2.00;;;;;;;9.80;63.74;99934.19;3133688;28;20154;-68
2022/12/25 02:37:12;;;;;;;3.80;2.25;;;;;;;9.78;63.84;99938.59;3157056;28;20193;-68
2022/12/25 02:40:39;;;;;;;3.30;1.70;;;;;;;9.85;63.36;99944.44;3133633;28;20080;-68
2022/12/25 02:42:22;;;;;;;2.83;1.48;;;;;;;9.34;63.65;99865.81;3158400;28;20105;-67
2022/12/25 03:08:11;;;;;;;3.45;2.08;;;;;;;9.93;63.56;99954.53;3158113;28;20051;-67
2022/12/25 03:11:37;;;;;;;4.68;2.20;;;;;;;9.93;63.38;99973.56;3157894;28;20051;-69
2022/12/25 03:13:13;;;;;;;4.18;2.20;;;;;;;9.95;63.47;99976.97;3154662;28;20106;-68
2022/12/25 03:18:35;;;;;;;3.80;2.42;;;;;;;9.90;63.58;99976.28;3127741;28;20078;-67
2022/12/25 03:27:33;;;;;;;4.15;2.00;;;;;;;9.69;63.69;99933.78;3157986;28;20275;-68
2022/12/25 03:29:04;;;;;;;4.55;2.50;;;;;;;10.00;63.75;99985.44;3132802;28;20044;-68
2022/12/25 03:32:43;;;;;;;4.45;2.38;;;;;;;10.02;63.38;99987.97;3152654;28;20052;-67
2022/12/25 03:36:30;;;;;;;4.25;2.10;;;;;;;10.00;62.80;99995.84;3157823;28;20048;-67
2022/12/25 04:36:11;;;;;;;4.00;2.13;;;;;;;9.67;64.31;100093.38;3130311;28;20155;-67
2022/12/25 04:37:43;;;;;;;3.08;1.95;;;;;;;9.62;64.58;100088.34;3129122;28;20084;-68
2022/12/25 04:39:17;;;;;;;4.75;2.53;;;;;;;9.66;64.37;100097.72;3125438;28;20048;-67
2022/12/25 04:40:47;;;;;;;;;;;;;;;9.61;64.63;100101.38;3157344;28;20437;-68
2022/12/25 04:42:19;;;;;;;5.72;2.25;;;;;;;9.61;64.72;100097.03;3156657;28;19924;-67
2022/12/25 04:43:51;;;;;;;5.03;2.60;;;;;;;9.58;64.78;100089.34;3152537;28;20045;-69
2022/12/25 04:45:22;;;;;;;3.90;2.42;;;;;;;9.64;64.59;100101.28;3152163;28;20106;-68
2022/12/25 04:46:54;;;;;;;5.53;2.67;;;;;;;9.65;64.86;100100.41;3157430;28;20134;-68
2022/12/25 04:48:25;;;;;;;5.70;2.58;;;;;;;9.65;64.33;100103.84;3156901;28;20097;-68
2022/12/25 04:49:57;;;;;;;6.93;2.53;;;;;;;9.64;64.58;100107.31;3157065;28;20495;-68
2022/12/25 04:51:29;;;;;;;5.72;2.97;;;;;;;9.64;64.41;100109.06;3151038;28;20048;-69
2022/12/25 04:53:01;;;;;;;8.20;2.88;;;;;;;9.65;64.40;100118.59;3154603;28;20051;-67
2022/12/25 04:54:34;;;;;;;4.78;2.53;;;;;;;9.65;64.78;100114.25;3156781;28;20052;-69
2022/12/25 04:56:05;;;;;;;4.35;2.08;;;;;;;9.62;64.68;100109.16;3156979;28;20060;-68
2022/12/25 04:57:38;;;;;;;5.65;2.65;;;;;;;9.54;64.64;100104.22;3153535;28;20172;-68
2022/12/25 04:59:09;;;;;;;5.03;2.83;;;;;;;9.61;64.75;100122.19;3155866;28;20048;-68
2022/12/25 05:00:41;;;;;;;4.72;2.88;;;;;;;9.56;64.67;100124.97;3151188;28;20803;-68
2022/12/25 05:02:13;;;;;;;6.18;2.95;;;;;;;9.53;64.48;100115.53;3149809;28;20048;-68
2022/12/25 05:03:43;;;;;;;5.93;2.92;;;;;;;9.54;64.59;100126.78;3156856;28;20071;-66
2022/12/25 05:05:15;;;;;;;8.55;4.30;;;;;;;9.51;64.65;100126.88;3157143;28;20095;-67
2022/12/25 05:06:46;;;;;;;6.55;3.38;;;;;;;9.54;64.60;100137.16;3156934;28;20048;-69
2022/12/25 05:08:18;;;;;;;8.52;3.60;;;;;;;9.53;64.72;100136.31;3156624;28;20048;-67
2022/12/25 05:09:52;;;;;;;6.65;3.83;;;;;;;9.53;64.35;100136.31;3156964;28;20134;-67
2022/12/25 05:11:23;;;;;;;6.75;3.58;;;;;;;9.50;64.75;100141.63;3156595;28;20113;-67
2022/12/25 05:12:54;;;;;;;8.18;3.45;;;;;;;9.49;64.38;100128.69;3156864;28;20150;-68
2022/12/25 05:14:26;;;;;;;9.73;3.78;;;;;;;9.44;64.43;100131.47;3153236;28;20106;-68
2022/12/25 05:15:57;;;;;;;6.45;3.53;;;;;;;9.42;64.67;100135.00;3154410;28;20524;-68
2022/12/25 05:17:29;;;;;;;7.13;3.28;;;;;;;9.41;64.95;100141.97;3155656;28;20091;-67
2022/12/25 05:19:00;;;;;;;8.65;3.47;;;;;;;8.99;64.58;100081.91;3156664;28;20189;-67
2022/12/25 05:20:32;;;;;;;6.10;3.35;;;;;;;9.37;65.06;100149.91;3147421;28;20115;-68
2022/12/25 05:22:02;;;;;;;6.47;3.10;;;;;;;9.29;64.74;100145.84;3142847;28;20059;-71
2022/12/25 05:23:34;;;;;;;6.55;3.15;;;;;;;9.33;64.90;100152.59;3144508;28;20127;-69
2022/12/25 05:25:07;;;;;;;7.07;3.40;;;;;;;9.21;64.90;100134.84;3151569;28;20048;-69
2022/12/25 05:26:39;;;;;;;8.52;3.40;;;;;;;9.30;64.82;100164.88;3150561;28;20197;-68
2022/12/25 05:28:10;;;;;;;5.70;3.17;;;;;;;9.25;64.82;100161.56;3150291;28;20437;-68
2022/12/25 05:29:42;;;;;;;8.57;4.22;;;;;;;9.23;65.12;100159.03;3152658;28;20052;-67
2022/12/25 05:31:13;;;;;;;5.70;3.20;;;;;;;9.25;65.32;100166.75;3156599;28;20048;-67
2022/12/25 05:32:45;;;;;;;5.82;3.40;;;;;;;9.22;65.12;100175.50;3156775;28;20509;-68
2022/12/25 05:34:16;;;;;;;6.72;3.78;;;;;;;9.13;65.12;100157.63;3156604;28;20070;-67
2022/12/25 05:35:48;;;;;;;8.30;4.25;;;;;;;9.18;65.58;100167.88;3156724;28;20161;-67
2022/12/25 05:37:19;;;;;;;6.75;3.50;;;;;;;9.15;65.39;100166.22;3156618;28;20067;-67
2022/12/25 05:38:51;;;;;;;7.93;3.58;;;;;;;9.14;65.29;100163.66;3147055;28;20793;-68
2022/12/25 05:40:23;;;;;;;6.68;4.10;;;;;;;8.32;65.57;100033.91;3148920;28;20049;-67
2022/12/25 05:41:55;;;;;;;6.20;3.13;;;;;;;9.10;65.52;100162.94;3156878;28;20044;-67
2022/12/25 05:43:26;;;;;;;7.30;3.60;;;;;;;8.66;65.89;100095.97;3155613;28;20109;-67
2022/12/25 05:44:58;;;;;;;6.95;3.00;;;;;;;9.09;65.70;100166.44;3156718;28;20067;-67
2022/12/25 05:46:30;;;;;;;6.22;3.30;;;;;;;9.08;65.74;100175.13;3156692;28;20048;-69
2022/12/25 05:48:02;;;;;;;6.00;3.10;;;;;;;9.07;66.03;100168.22;3148167;28;20045;-67
2022/12/25 05:49:34;;;;;;;8.75;4.00;;;;;;;9.06;65.85;100187.31;3154967;28;20051;-69
2022/12/25 05:51:07;;;;;;;9.10;4.53;;;;;;;8.62;65.91;100127.28;3156441;28;20455;-67
2022/12/25 05:52:39;;;;;;;8.45;4.80;;;;;;;8.96;65.86;100178.13;3153915;28;20052;-67
2022/12/25 05:54:11;;;;;;;6.28;3.85;;;;;;;8.98;65.94;100190.16;3158799;28;20109;-69
2022/12/25 05:55:43;;;;;;;5.90;3.78;;;;;;;9.01;66.12;100199.59;3159000;28;20063;-68
2022/12/25 05:57:15;;;;;;;7.90;4.30;;;;;;;8.97;66.04;100204.06;3156194;28;20075;-69
2022/12/25 05:58:47;;;;;;;6.35;3.80;;;;;;;8.95;66.08;100210.19;3154513;28;20393;-67
2022/12/25 06:00:20;;;;;;;6.63;3.55;;;;;;;8.93;66.31;100211.97;3158852;28;20067;-69
2022/12/25 06:01:50;;;;;;;7.90;4.35;;;;;;;8.89;66.48;100206.88;3151079;28;20055;-68
2022/12/25 06:03:23;;;;;;;11.82;4.55;;;;;;;8.86;66.72;100219.97;3152309;28;20044;-69
2022/12/25 06:04:57;;;;;;;8.30;3.80;;;;;;;8.82;66.48;100215.78;3147502;28;20386;-66
2022/12/25 06:06:29;;;;;;;10.40;4.35;;;;;;;8.87;66.84;100228.59;3158759;28;20085;-67
2022/12/25 06:08:00;;;;;;;9.70;4.53;;;;;;;8.87;66.48;100233.81;3158475;28;20121;-68
2022/12/25 06:09:32;;;;;;;11.93;4.82;;;;;;;8.89;66.78;100234.63;3158673;28;20073;-68
2022/12/25 06:11:06;;;;;;;11.52;5.28;;;;;;;8.92;66.56;100237.13;3158409;28;20048;-68
2022/12/25 06:12:38;;;;;;;6.40;3.90;;;;;;;8.88;66.95;100244.16;3156134;28;20093;-67
2022/12/25 06:14:10;;;;;;;8.80;4.60;;;;;;;8.87;67.01;100236.41;3157372;28;20121;-68
2022/12/25 06:15:42;;;;;;;8.40;4.13;;;;;;;8.86;66.88;100240.75;3158817;28;20054;-67
2022/12/25 06:17:13;;;;;;;13.70;5.43;;;;;;;8.87;66.90;100239.00;3156215;28;20055;-68
2022/12/25 06:18:50;;;;;;;14.18;5.43;;;;;;;8.74;67.13;100204.78;3158340;28;20043;-68
2022/12/25 06:20:22;;;;;;;14.77;7.07;;;;;;;8.98;67.02;100238.66;3158452;28;20127;-67
2022/12/25 06:21:55;;;;;;;9.90;4.68;;;;;;;8.89;66.84;100206.88;3158815;28;20105;-67
2022/12/25 06:23:26;;;;;;;8.65;5.25;;;;;;;9.19;66.74;100243.19;3158590;28;20492;-68
2022/12/25 06:24:57;;;;;;;8.30;4.38;;;;;;;9.29;66.41;100243.75;3158596;28;20048;-67
2022/12/25 06:26:31;;;;;;;8.88;4.95;;;;;;;9.37;66.09;100244.31;3158397;28;20044;-67
2022/12/25 06:28:02;;;;;;;8.23;4.32;;;;;;;9.45;66.23;100247.53;3154748;28;20054;-67
2022/12/25 06:29:34;;;;;;;8.98;4.40;;;;;;;9.50;65.82;100236.97;3158437;28;20048;-68
2022/12/25 06:31:07;;;;;;;7.60;4.20;;;;;;;9.62;65.78;100246.13;3158776;28;20054;-68
2022/12/25 06:32:38;;;;;;;7.20;3.97;;;;;;;9.74;65.61;100248.28;3158072;28;20545;-68
2022/12/25 06:34:10;;;;;;;9.20;4.38;;;;;;;9.89;65.25;100257.31;3158123;28;20236;-69
2022/12/25 06:35:42;;;;;;;13.27;4.45;;;;;;;10.03;64.67;100263.72;3158226;28;20101;-67
2022/12/25 06:37:13;;;;;;;7.53;4.13;;;;;;;10.18;64.71;100267.53;3147111;28;20056;-68
2022/12/25 06:38:45;;;;;;;6.53;3.65;;;;;;;10.31;64.31;100261.91;3148601;28;20044;-68
2022/12/25 06:40:17;;;;;;;10.45;4.10;;;;;;;10.43;63.70;100270.13;3158407;28;20737;-68
2022/12/25 06:41:50;;;;;;;8.00;4.47;;;;;;;10.55;63.12;100268.81;3154823;28;20052;-69
2022/12/25 06:43:21;;;;;;;14.07;5.78;;;;;;;10.74;63.10;100275.91;3157162;28;20436;-68
2022/12/25 06:44:53;;;;;;;16.00;7.28;;;;;;;10.84;62.57;100270.31;3155355;28;20047;-69
2022/12/25 06:46:26;;;;;;;10.05;4.97;;;;;;;10.92;62.08;100278.69;3157985;28;20044;-69
2022/12/25 06:47:58;;;;;;;10.35;4.93;;;;;;;10.94;61.21;100276.00;3158132;28;20047;-69
2022/12/25 06:49:29;;;;;;;8.77;4.20;;;;;;;11.01;60.89;100272.25;3158217;28;20438;-68
2022/12/25 06:51:03;;;;;;;8.48;4.40;;;;;;;11.08;60.96;100278.06;3156410;28;20522;-68
2022/12/25 06:52:35;;;;;;;8.18;4.25;;;;;;;11.08;60.64;100276.31;3152663;28;20052;-69
2022/12/25 06:54:06;;;;;;;7.65;4.40;;;;;;;11.18;60.33;100275.94;3158491;28;20104;-68
2022/12/25 06:55:37;;;;;;;8.38;4.45;;;;;;;11.25;59.68;100278.25;3158202;28;20536;-69
2022/12/25 06:57:10;;;;;;;8.60;4.68;;;;;;;11.27;59.34;100275.56;3152388;28;20127;-69
2022/12/25 06:58:42;;;;;;;10.98;4.90;;;;;;;11.32;59.61;100277.09;3157088;28;20154;-69
2022/12/25 07:00:15;;;;;;;8.80;5.60;;;;;;;11.38;59.10;100274.22;3158077;28;20144;-69
2022/12/25 07:01:49;;;;;;;10.38;4.43;;;;;;;11.43;58.77;100270.59;3150097;28;20559;-69
2022/12/25 07:03:21;;;;;;;8.38;4.45;;;;;;;11.46;58.76;100266.09;3157670;28;20064;-68
2022/12/25 07:04:53;;;;;;;9.63;4.68;;;;;;;11.61;58.40;100267.22;3158119;28;20063;-68
2022/12/25 07:06:25;;;;;;;8.87;4.40;;;;;;;11.66;58.19;100259.22;3158145;28;20044;-68
2022/12/25 07:07:57;;;;;;;6.43;3.63;;;;;;;11.79;57.89;100260.38;3158083;28;20310;-69
2022/12/25 07:09:29;;;;;;;7.25;3.75;;;;;;;11.98;57.63;100270.88;3157706;28;20056;-69
2022/12/25 07:11:01;;;;;;;7.20;4.00;;;;;;;12.11;57.23;100271.22;3155824;28;20524;-69
2022/12/25 07:12:34;;;;;;;7.30;3.95;;;;;;;12.26;56.56;100275.75;3156471;28;20512;-69
2022/12/25 07:14:06;;;;;;;;;;;;;;;12.35;56.22;100277.94;3158452;28;20075;-69
2022/12/25 07:15:37;;;;;;;5.78;3.13;;;;;;;12.33;55.68;100261.50;3157881;28;19920;-69
2022/12/25 07:17:08;;;;;;;6.55;3.33;;;;;;;12.68;55.94;100278.19;3155393;28;20052;-69
2022/12/25 07:18:41;;;;;;;8.93;3.55;;;;;;;12.91;54.90;100273.66;3147777;28;20049;-68
2022/12/25 07:20:13;;;;;;;6.53;3.13;;;;;;;13.15;54.52;100282.94;3152550;28;20048;-68
2022/12/25 07:21:46;;;;;;;6.00;3.22;;;;;;;13.39;53.60;100286.16;3157560;28;20305;-68
2022/12/25 07:23:16;;;;;;;5.93;3.08;;;;;;;13.62;52.71;100289.41;3157732;28;20676;-68
2022/12/25 07:24:48;;;;;;;5.20;3.05;;;;;;;13.84;52.47;100286.56;3157760;28;20132;-68
2022/12/25 07:26:19;;;;;;;4.95;2.67;;;;;;;14.09;51.84;100296.63;3152837;28;20494;-68
2022/12/25 07:27:53;;;;;;;4.45;2.72;;;;;;;14.25;50.80;100291.44;3157574;28;20604;-68
2022/12/25 07:29:24;;;;;;;6.43;3.25;;;;;;;14.42;50.71;100304.50;3158078;28;20040;-68
2022/12/25 07:31:01;;;;;;;7.90;3.38;;;;;;;14.61;50.11;100293.91;3157415;28;20498;-68
2022/12/25 07:32:33;;;;;;;5.60;3.15;;;;;;;14.90;49.90;100294.91;3154244;28;20049;-67
2022/12/25 07:34:05;;;;;;;7.30;3.72;;;;;;;14.86;48.87;100248.00;3157603;28;20462;-68
2022/12/25 07:35:36;;;;;;;6.88;2.90;;;;;;;15.39;48.08;100304.47;3158028;28;20052;-68
2022/12/25 07:37:08;;;;;;;6.18;3.28;;;;;;;15.51;47.45;100305.53;3157721;28;20048;-67
2022/12/25 07:38:40;;;;;;;5.97;3.10;;;;;;;15.60;47.20;100305.84;3148470;28;20049;-67
2022/12/25 07:40:12;;;;;;;5.32;2.80;;;;;;;15.72;46.96;100308.72;3150738;28;20108;-67
2022/12/25 07:41:44;;;;;;;4.50;2.70;;;;;;;15.78;46.33;100305.75;3155637;28;20048;-67
2022/12/25 07:43:18;;;;;;;5.32;2.58;;;;;;;15.82;46.14;100296.72;3157550;28;20052;-68
2022/12/25 07:44:49;;;;;;;;;;;;;;;15.94;46.07;100306.50;3157736;28;20052;-69
2022/12/25 07:46:22;;;;;;;6.25;2.90;;;;;;;15.99;45.83;100309.72;3157412;28;20305;-68
2022/12/25 07:47:52;;;;;;;6.22;3.28;;;;;;;16.11;45.38;100311.59;3157575;28;20440;-69
2022/12/25 07:49:24;;;;;;;5.18;2.67;;;;;;;16.18;45.03;100311.22;3157746;28;20120;-68
2022/12/25 07:50:57;;;;;;;5.82;3.10;;;;;;;16.43;45.33;100321.97;3156324;28;20047;-69
2022/12/25 07:52:29;;;;;;;9.02;3.83;;;;;;;16.83;45.26;100320.38;3150236;28;20071;-71
2022/12/25 07:54:00;;;;;;;6.35;3.40;;;;;;;17.16;43.85;100315.69;3157140;28;20051;-68
2022/12/25 07:55:32;;;;;;;5.72;3.03;;;;;;;17.14;43.36;100320.22;3151922;28;20105;-68
2022/12/25 07:57:04;;;;;;;4.97;3.13;;;;;;;17.37;43.47;100319.56;3151556;28;20048;-68
2022/12/25 07:58:37;;;;;;;4.18;2.83;;;;;;;17.53;42.63;100322.03;3146638;28;20386;-68
2022/12/25 08:00:09;;;;;;;5.55;2.78;;;;;;;17.34;43.00;100275.03;3157200;28;20052;-69
2022/12/25 08:01:41;;;;;;;4.45;3.03;;;;;;;17.71;42.41;100323.44;3148367;28;20055;-69
2022/12/25 08:03:14;;;;;;;8.18;2.83;;;;;;;17.83;42.66;100310.44;3157473;28;20151;-69
2022/12/25 08:04:46;;;;;;;4.70;2.78;;;;;;;17.99;42.19;100312.91;3157559;28;20539;-69
2022/12/25 08:06:21;;;;;;;5.97;3.00;;;;;;;18.03;41.76;100327.53;3157299;28;20056;-69
2022/12/25 08:07:53;;;;;;;4.95;2.67;;;;;;;17.93;41.20;100322.91;3157519;28;20048;-69
2022/12/25 08:09:25;;;;;;;6.03;2.60;;;;;;;17.82;41.12;100319.28;3155566;28;20092;-69
2022/12/25 08:10:57;;;;;;;4.78;2.47;;;;;;;17.68;41.52;100318.38;3154698;28;20051;-69
2022/12/25 08:12:29;;;;;;;6.93;2.85;;;;;;;17.60;41.35;100320.69;3156958;28;20458;-68
2022/12/25 08:14:05;;;;;;;5.85;3.00;;;;;;;17.59;42.03;100318.16;3157169;28;20470;-68
2022/12/25 08:15:36;;;;;;;7.82;3.53;;;;;;;17.69;42.18;100317.44;3157023;28;20059;-68
2022/12/25 08:17:08;;;;;;;6.32;3.40;;;;;;;17.85;41.38;100332.25;3153290;28;20048;-69
2022/12/25 08:18:41;;;;;;;8.68;2.92;;;;;;;17.83;41.60;100340.25;3157074;28;20104;-69
2022/12/25 08:20:14;;;;;;;6.57;3.08;;;;;;;17.80;41.56;100322.00;3157246;28;20091;-69
2022/12/25 08:21:46;;;;;;;6.32;2.95;;;;;;;17.74;41.43;100335.56;3157097;28;20463;-68
2022/12/25 08:23:17;;;;;;;5.43;3.05;;;;;;;17.82;41.62;100332.47;3152568;28;20044;-69
2022/12/25 08:24:49;;;;;;;5.30;2.88;;;;;;;17.83;41.63;100339.41;3148206;28;20059;-70
2022/12/25 08:26:22;;;;;;;6.47;2.83;;;;;;;17.77;41.30;100332.72;3157123;28;20048;-70
2022/12/25 08:27:54;;;;;;;6.13;3.05;;;;;;;17.66;41.40;100338.72;3156966;28;20804;-69
2022/12/25 08:29:28;;;;;;;9.88;2.83;;;;;;;17.71;41.76;100341.88;3149001;28;20101;-68
2022/12/25 08:31:05;;;;;;;6.60;2.83;;;;;;;17.82;41.78;100341.22;3156811;28;20130;-68
2022/12/25 08:32:37;;;;;;;6.57;3.10;;;;;;;17.89;41.68;100336.38;3156982;28;20063;-68
2022/12/25 08:34:09;;;;;;;6.07;3.03;;;;;;;17.83;41.58;100302.53;3156918;28;20052;-68
2022/12/25 08:35:41;;;;;;;7.90;2.90;;;;;;;17.96;40.84;100298.13;3157259;28;20101;-69
2022/12/25 08:37:13;;;;;;;6.22;3.05;;;;;;;18.21;40.64;100342.09;3143886;28;20048;-68
2022/12/25 08:38:45;;;;;;;5.50;2.38;;;;;;;18.18;40.19;100350.22;3146586;28;20134;-69
2022/12/25 08:40:17;;;;;;;3.78;2.22;;;;;;;18.23;40.56;100356.03;3155859;28;20051;-68
2022/12/25 08:41:49;;;;;;;5.13;2.63;;;;;;;18.28;39.98;100351.28;3156822;28;20056;-68
2022/12/25 08:43:19;;;;;;;9.05;2.20;;;;;;;18.33;39.79;100361.50;3156943;28;20539;-68
2022/12/25 08:44:53;;;;;;;4.78;2.55;;;;;;;18.25;39.53;100355.91;3157220;28;20201;-68
2022/12/25 08:46:25;;;;;;;8.23;2.20;;;;;;;18.27;39.89;100346.94;3156846;28;20048;-69
2022/12/25 08:47:57;;;;;;;7.65;2.45;;;;;;;18.32;39.71;100354.56;3157186;28;20063;-68
2022/12/25 08:49:29;;;;;;;3.50;2.30;;;;;;;18.28;39.54;100348.66;3156915;28;20044;-68
2022/12/25 08:51:02;;;;;;;4.95;2.33;;;;;;;18.25;39.54;100348.88;3155252;28;20105;-68
2022/12/25 08:52:34;;;;;;;4.00;2.17;;;;;;;18.27;39.10;100338.19;3151121;28;20051;-70
2022/12/25 08:54:06;;;;;;;4.60;2.33;;;;;;;18.22;39.11;100328.00;3153273;28;20040;-68
2022/12/25 08:55:38;;;;;;;4.20;2.40;;;;;;;18.33;38.92;100346.53;3156979;28;20059;-69
2022/12/25 08:57:10;;;;;;;4.43;2.05;;;;;;;18.28;39.00;100338.09;3154136;28;20477;-69